Time;durP1;ratioP1;P1;durP2;ratioP2;P2;SDS_P1;SDS_P2;PMS_P1;PMS_P2;Temp;Humidity;BMP_temperature;BMP_pressure;BME280_temperature;BME280_humidity;BME280_pressure;Samples;Min_cycle;Max_cycle;Signal;HPM_P1;HPM_P2
2021/12/19 00:04:15;;;;;;;10.88;7.05;;;;;;;2.42;74.27;101373.00;5054290;28;20040;-79
2021/12/19 00:09:27;;;;;;;9.70;6.95;;;;;;;2.22;73.74;101337.47;5087501;28;20145;-78
2021/12/19 00:11:59;;;;;;;9.88;5.97;;;;;;;2.48;73.59;101356.84;5036198;27;1375488;-78
2021/12/19 00:14:25;;;;;;;14.73;6.95;;;;;;;2.39;73.82;101346.97;5072345;28;20055;-77
2021/12/19 00:16:53;;;;;;;11.25;7.57;;;;;;;2.28;74.03;101335.19;5070946;28;20060;-77
2021/12/19 00:19:19;;;;;;;11.80;7.25;;;;;;;2.19;74.25;101337.31;5061475;28;20521;-77
2021/12/19 00:21:46;;;;;;;13.80;5.88;;;;;;;1.95;75.01;101331.84;5063905;28;20040;-78
2021/12/19 00:24:12;;;;;;;9.35;5.07;;;;;;;1.98;75.40;101352.69;5064003;28;20626;-76
2021/12/19 00:26:38;;;;;;;10.13;5.57;;;;;;;1.61;76.02;101323.25;5079356;28;20147;-80
2021/12/19 00:29:04;;;;;;;7.88;5.25;;;;;;;1.76;75.89;101323.16;5082050;28;20036;-77
2021/12/19 00:31:31;;;;;;;9.98;5.88;;;;;;;1.81;75.54;101333.75;5085257;28;20393;-77
2021/12/19 00:33:57;;;;;;;10.90;5.35;;;;;;;1.85;76.13;101356.34;5081017;28;20497;-78
2021/12/19 00:36:23;;;;;;;7.88;5.25;;;;;;;1.38;77.30;101323.78;5084672;28;20036;-78
2021/12/19 00:38:49;;;;;;;9.38;5.72;;;;;;;1.62;77.21;101329.34;5085532;28;20074;-78
2021/12/19 00:41:14;;;;;;;8.10;5.82;;;;;;;1.62;76.70;101313.81;5086681;28;20052;-78
2021/12/19 00:44:08;;;;;;;12.52;5.75;;;;;;;1.89;76.06;101333.28;5037117;28;20616;-77
2021/12/19 00:46:51;;;;;;;7.28;4.88;;;;;;;1.71;76.21;101318.53;5014490;28;20504;-76
2021/12/19 00:49:18;;;;;;;7.43;4.93;;;;;;;1.70;75.90;101296.97;5015059;28;20057;-75
2021/12/19 00:51:45;;;;;;;10.38;5.50;;;;;;;1.80;75.49;101296.63;5015105;28;20031;-75
2021/12/19 00:54:12;;;;;;;6.78;4.60;;;;;;;1.88;75.68;101317.72;5013597;28;20112;-82
2021/12/19 00:56:43;;;;;;;6.03;5.18;;;;;;;1.97;75.77;101309.53;5014527;28;20374;-82
2021/12/19 00:59:09;;;;;;;8.10;5.70;;;;;;;1.93;75.36;101302.41;5014140;28;20132;-78
2021/12/19 01:01:36;;;;;;;10.30;5.72;;;;;;;2.03;74.86;101292.56;5014400;28;20235;-80
2021/12/19 01:04:04;;;;;;;8.55;6.00;;;;;;;1.93;74.94;101277.41;5014399;28;20037;-75
2021/12/19 01:06:30;;;;;;;8.07;6.00;;;;;;;1.83;75.54;101278.66;5012906;28;20637;-77
2021/12/19 01:08:56;;;;;;;9.63;6.55;;;;;;;2.00;75.52;101274.31;5014001;28;20057;-79
2021/12/19 01:11:22;;;;;;;9.63;5.85;;;;;;;1.91;74.95;101281.63;5014791;28;20057;-79
2021/12/19 01:13:48;;;;;;;8.45;5.53;;;;;;;1.58;75.60;101253.28;5014300;28;20081;-77
2021/12/19 01:16:15;;;;;;;7.47;5.05;;;;;;;1.82;75.28;101258.75;5013154;28;20642;-79
2021/12/19 01:18:42;;;;;;;8.10;5.65;;;;;;;1.79;75.12;101261.19;5014280;28;20091;-77
2021/12/19 01:21:08;;;;;;;6.97;4.38;;;;;;;1.91;75.18;101260.91;5027844;28;20049;-78
2021/12/19 01:23:33;;;;;;;7.18;5.18;;;;;;;1.92;75.15;101265.28;5013329;28;20044;-79
2021/12/19 01:25:59;;;;;;;7.75;5.40;;;;;;;1.61;75.75;101262.88;5013621;28;20404;-76
2021/12/19 01:28:24;;;;;;;7.53;5.05;;;;;;;1.65;76.09;101262.22;5009762;28;20045;-77
2021/12/19 01:30:50;;;;;;;7.47;6.10;;;;;;;2.15;75.02;101274.13;5014607;28;21393;-78
2021/12/19 01:33:16;;;;;;;9.88;5.35;;;;;;;1.74;75.61;101246.28;5014813;28;20448;-78
2021/12/19 01:35:42;;;;;;;11.02;6.55;;;;;;;1.76;75.47;101230.00;5014734;28;20057;-81
2021/12/19 01:40:08;;;;;;;10.75;5.60;;;;;;;1.81;75.90;101225.06;5052080;28;20634;-83
2021/12/19 01:42:36;;;;;;;9.18;5.72;;;;;;;1.95;75.23;101239.56;5015604;28;20112;-83
2021/12/19 01:45:05;;;;;;;8.48;5.25;;;;;;;1.81;75.23;101217.31;5012129;28;20049;-79
2021/12/19 01:47:30;;;;;;;7.68;5.15;;;;;;;1.92;75.28;101231.66;5013553;28;20548;-83
2021/12/19 01:49:56;;;;;;;10.13;6.00;;;;;;;1.40;76.61;101216.16;5009012;28;20046;-83
2021/12/19 01:52:23;;;;;;;8.80;4.63;;;;;;;1.69;76.33;101196.91;5012426;28;20053;-78
2021/12/19 01:54:50;;;;;;;7.45;4.55;;;;;;;1.30;76.79;101194.13;5010717;28;20029;-79
2021/12/19 01:57:16;;;;;;;6.20;4.43;;;;;;;1.63;76.14;101197.47;5008547;28;20382;-79
2021/12/19 02:02:13;;;;;;;15.63;5.05;;;;;;;1.52;76.63;101182.25;5026737;27;20613;-78
2021/12/19 02:04:38;;;;;;;14.27;5.47;;;;;;;1.44;76.79;101174.13;5008536;28;20041;-80
2021/12/19 02:07:04;;;;;;;8.65;5.28;;;;;;;1.40;76.55;101170.47;5012497;28;20034;-79
2021/12/19 02:09:29;;;;;;;8.85;5.60;;;;;;;1.29;76.86;101175.94;5009365;28;20034;-79
2021/12/19 02:11:55;;;;;;;8.75;5.55;;;;;;;1.38;76.76;101172.13;5010405;28;20052;-79
2021/12/19 02:14:21;;;;;;;10.98;7.00;;;;;;;0.95;77.42;101176.84;5009246;28;20647;-77
2021/12/19 02:16:47;;;;;;;9.43;5.80;;;;;;;1.16;77.53;101167.56;5010892;28;20080;-79
2021/12/19 02:19:13;;;;;;;9.77;6.57;;;;;;;1.32;77.23;101161.47;5009510;28;20026;-79
2021/12/19 02:21:40;;;;;;;9.90;5.63;;;;;;;1.32;77.15;101170.94;5008930;28;20033;-79
2021/12/19 02:24:10;;;;;;;9.88;6.63;;;;;;;1.10;77.56;101163.78;5007991;28;20049;-77
2021/12/19 02:26:39;;;;;;;8.50;5.57;;;;;;;1.21;77.57;101162.63;5010183;28;20058;-79
2021/12/19 02:29:05;;;;;;;8.35;6.43;;;;;;;1.04;77.59;101151.47;5006298;28;20049;-79
2021/12/19 02:31:31;;;;;;;12.38;8.02;;;;;;;1.04;78.24;101143.72;5007857;28;20054;-79
2021/12/19 02:34:06;;;;;;;12.52;6.63;;;;;;;1.02;78.95;101171.16;5009019;28;20452;-80
2021/12/19 02:49:49;;;;;;;10.68;7.72;;;;;;;0.83;79.14;101102.19;5007163;28;20524;-80
2021/12/19 02:52:16;;;;;;;12.00;9.88;;;;;;;0.95;78.44;101100.19;5012052;28;20057;-77
2021/12/19 02:54:42;;;;;;;14.80;9.10;;;;;;;0.54;79.43;101090.34;5012508;28;20061;-77
2021/12/19 02:57:08;;;;;;;14.40;9.23;;;;;;;0.50;80.33;101097.06;5005627;28;20516;-78
2021/12/19 02:59:34;;;;;;;10.48;8.02;;;;;;;0.33;80.96;101085.88;5008804;28;20132;-80
2021/12/19 03:02:01;;;;;;;19.13;9.52;;;;;;;0.32;80.89;101091.84;5008257;28;20128;-80
2021/12/19 03:04:27;;;;;;;17.63;8.30;;;;;;;0.61;80.60;101115.72;5007818;28;20084;-80
2021/12/19 03:06:52;;;;;;;15.05;9.93;;;;;;;0.62;80.27;101073.56;5010936;28;20460;-80
2021/12/19 03:09:38;;;;;;;16.40;10.27;;;;;;;0.24;80.52;101087.97;5011388;28;20037;-80
2021/12/19 03:20:11;;;;;;;12.77;9.63;;;;;;;0.43;80.78;101050.22;4997670;28;20053;-79
2021/12/19 03:22:36;;;;;;;18.98;10.13;;;;;;;0.72;79.72;101052.56;5013050;28;20038;-77
2021/12/19 03:25:03;;;;;;;10.70;8.30;;;;;;;0.90;79.41;101087.88;4996604;28;20116;-80
2021/12/19 03:27:28;;;;;;;13.73;10.85;;;;;;;0.83;79.33;101072.06;4992890;28;20084;-82
2021/12/19 03:29:54;;;;;;;18.45;10.52;;;;;;;0.74;79.54;101050.06;4993726;28;20463;-80
2021/12/19 03:32:19;;;;;;;16.33;11.77;;;;;;;0.72;79.48;101068.06;4993251;28;20478;-80
2021/12/19 03:34:45;;;;;;;14.13;9.25;;;;;;;0.65;79.58;101062.50;4994041;28;20039;-80
2021/12/19 03:37:10;;;;;;;16.42;10.70;;;;;;;0.33;80.33;101059.19;4996318;28;20049;-80
2021/12/19 03:39:54;;;;;;;13.45;9.38;;;;;;;0.46;80.69;101076.19;4993155;28;20109;-80
2021/12/19 03:42:20;;;;;;;17.63;11.50;;;;;;;0.59;80.70;101076.88;4995131;28;20606;-77
2021/12/19 03:44:45;;;;;;;15.85;11.43;;;;;;;0.12;81.66;101038.31;4993304;28;20141;-81
2021/12/19 03:47:11;;;;;;;16.95;11.05;;;;;;;0.55;80.84;101068.91;4991349;28;20065;-78
2021/12/19 03:49:36;;;;;;;14.57;10.55;;;;;;;0.16;80.43;101038.56;4993880;28;20068;-80
2021/12/19 03:52:03;;;;;;;15.48;11.48;;;;;;;-0.02;81.14;101058.22;4993612;28;20453;-81
2021/12/19 03:54:28;;;;;;;12.45;9.57;;;;;;;-0.22;80.94;101010.75;4996894;28;20033;-80
2021/12/19 03:56:54;;;;;;;14.13;9.45;;;;;;;0.15;81.08;101036.78;4996221;28;20529;-80
2021/12/19 03:59:19;;;;;;;16.33;11.07;;;;;;;-0.16;81.16;101013.66;4995074;28;20061;-79
2021/12/19 04:01:49;;;;;;;15.32;10.57;;;;;;;-0.28;82.08;101024.22;4995329;28;20104;-79
2021/12/19 04:04:15;;;;;;;14.32;9.55;;;;;;;-0.17;81.95;101014.44;4994497;28;20508;-80
2021/12/19 04:06:41;;;;;;;14.27;10.55;;;;;;;0.11;80.95;101006.44;4993814;28;20034;-79
2021/12/19 04:10:15;;;;;;;15.90;11.68;;;;;;;0.01;80.29;101026.56;5071805;27;20621;-78
2021/12/19 04:12:42;;;;;;;13.02;9.90;;;;;;;-0.62;82.22;101030.91;5001371;28;22995;-78
2021/12/19 04:15:09;;;;;;;15.00;9.80;;;;;;;0.03;82.10;101032.69;4998314;28;20046;-78
2021/12/19 04:17:35;;;;;;;11.85;9.63;;;;;;;0.14;80.83;100997.97;4999750;28;20046;-81
2021/12/19 04:20:00;;;;;;;15.50;10.77;;;;;;;0.26;79.96;101002.88;4993737;28;20566;-75
2021/12/19 04:22:26;;;;;;;16.55;10.98;;;;;;;0.50;79.68;101011.88;4993149;28;20042;-77
2021/12/19 04:24:51;;;;;;;12.27;9.27;;;;;;;0.51;79.11;101002.44;4995280;28;24248;-80
2021/12/19 04:27:18;;;;;;;15.63;11.13;;;;;;;0.11;79.61;101011.59;4993381;28;20053;-77
2021/12/19 04:29:44;;;;;;;16.75;10.77;;;;;;;-0.58;81.01;100974.47;5006198;28;20046;-79
2021/12/19 04:32:11;;;;;;;12.23;10.40;;;;;;;-0.24;81.23;100987.44;5013930;28;20132;-81
2021/12/19 04:34:37;;;;;;;14.48;10.68;;;;;;;-0.38;81.72;100982.38;5012414;28;20056;-76
2021/12/19 04:37:12;;;;;;;15.30;11.90;;;;;;;-0.35;81.78;100973.13;5013133;28;20068;-78
2021/12/19 04:59:48;;;;;;;15.15;11.30;;;;;;;-0.30;81.23;100975.94;4999513;28;20077;-79
2021/12/19 05:04:35;;;;;;;13.63;9.80;;;;;;;0.03;79.63;100952.72;4995670;28;20030;-77
2021/12/19 05:15:32;;;;;;;13.38;9.90;;;;;;;-0.85;80.20;100974.72;4974147;28;20058;-77
2021/12/19 05:18:02;;;;;;;13.95;10.63;;;;;;;-0.28;79.91;100967.47;5000052;28;20049;-79
2021/12/19 05:20:29;;;;;;;15.60;12.43;;;;;;;-0.16;79.46;100963.78;5010192;28;20053;-78
2021/12/19 05:23:02;;;;;;;12.25;10.45;;;;;;;-0.55;80.02;100950.53;5003876;28;20042;-79
2021/12/19 05:25:28;;;;;;;19.08;12.32;;;;;;;-0.19;79.50;100964.47;5000984;28;20121;-78
2021/12/19 05:28:17;;;;;;;17.25;11.25;;;;;;;0.03;79.45;100956.16;5047722;28;21219;-78
2021/12/19 05:30:42;;;;;;;14.98;10.43;;;;;;;0.10;78.41;100978.88;5015631;28;20038;-76
2021/12/19 05:33:08;;;;;;;15.07;11.38;;;;;;;-0.18;78.71;100952.50;5020059;28;20077;-80
2021/12/19 05:46:20;;;;;;;16.60;11.35;;;;;;;-0.51;80.31;100935.31;5011488;28;20448;-82
2021/12/19 05:48:45;;;;;;;15.80;12.00;;;;;;;-0.29;79.57;100944.19;5012207;28;20038;-82
2021/12/19 05:51:11;;;;;;;14.13;10.50;;;;;;;-0.29;79.28;100950.22;5012079;28;20443;-82
2021/12/19 05:53:36;;;;;;;16.95;11.25;;;;;;;-0.31;79.03;100941.50;5012610;28;20562;-82
2021/12/19 05:56:03;;;;;;;15.55;11.88;;;;;;;-0.34;78.33;100928.47;5011190;28;20084;-80
2021/12/19 05:58:29;;;;;;;14.40;11.55;;;;;;;-0.64;80.06;100948.34;5012053;28;20077;-80
2021/12/19 06:00:54;;;;;;;21.20;11.40;;;;;;;-0.61;79.68;100934.75;5011276;28;20127;-81
2021/12/19 06:03:20;;;;;;;16.85;12.02;;;;;;;-0.57;79.83;100941.84;5012426;28;20053;-78
2021/12/19 06:05:45;;;;;;;16.23;11.63;;;;;;;-0.60;80.00;100944.25;5011154;28;20469;-80
2021/12/19 06:08:11;;;;;;;17.33;12.57;;;;;;;-0.45;80.29;100938.22;5010608;28;20107;-79
2021/12/19 06:10:37;;;;;;;17.90;13.23;;;;;;;-0.69;80.65;100937.81;5012356;28;20060;-79
2021/12/19 06:13:02;;;;;;;16.70;12.10;;;;;;;-0.56;80.20;100908.44;5011531;28;20029;-80
2021/12/19 06:15:28;;;;;;;33.90;13.20;;;;;;;-0.67;80.50;100920.72;4995353;28;20112;-79
2021/12/19 06:17:53;;;;;;;21.02;15.27;;;;;;;-0.80;80.37;100878.78;5011633;28;20053;-81
2021/12/19 06:20:19;;;;;;;18.58;15.10;;;;;;;-0.48;80.10;100890.78;5010963;28;20330;-80
2021/12/19 06:22:44;;;;;;;18.00;13.52;;;;;;;-0.38;79.11;100915.34;5011032;28;20084;-82
2021/12/19 06:25:11;;;;;;;21.65;14.32;;;;;;;-0.47;79.42;100883.13;5011323;28;20092;-77
2021/12/19 06:27:37;;;;;;;21.38;14.75;;;;;;;-0.69;79.55;100867.34;5009485;28;20056;-82
2021/12/19 06:30:04;;;;;;;19.77;13.77;;;;;;;-0.71;79.02;100864.69;5011071;28;20041;-80
2021/12/19 06:32:30;;;;;;;21.45;16.77;;;;;;;-0.45;78.96;100888.34;5012506;28;20050;-81
2021/12/19 06:34:59;;;;;;;21.67;15.65;;;;;;;-0.01;78.29;100893.19;5010558;28;20037;-78
2021/12/19 06:37:24;;;;;;;22.40;15.52;;;;;;;-0.08;78.28;100883.38;5012363;28;20049;-83
2021/12/19 06:39:50;;;;;;;21.45;15.57;;;;;;;0.02;78.14;100879.56;4998366;28;20099;-82
2021/12/19 06:42:15;;;;;;;25.65;15.75;;;;;;;0.16;77.52;100872.50;4996490;28;20125;-82
2021/12/19 06:44:41;;;;;;;23.75;15.98;;;;;;;0.01;76.97;100870.06;4996458;28;20446;-80
2021/12/19 06:47:07;;;;;;;18.65;14.98;;;;;;;0.15;76.72;100858.72;4996968;28;20062;-79
2021/12/19 06:49:32;;;;;;;20.08;15.77;;;;;;;-0.12;76.99;100863.41;4997711;28;20125;-77
2021/12/19 06:51:58;;;;;;;26.20;16.45;;;;;;;0.09;76.95;100857.53;4999387;28;20034;-80
2021/12/19 06:54:24;;;;;;;24.25;16.92;;;;;;;-0.12;77.67;100870.25;4997879;28;20420;-81
2021/12/19 06:56:49;;;;;;;21.02;14.70;;;;;;;0.08;76.40;100853.22;4997848;28;20052;-80
2021/12/19 06:59:15;;;;;;;23.05;17.02;;;;;;;-0.02;76.33;100832.13;4998305;28;20144;-81
2021/12/19 07:01:41;;;;;;;22.58;15.82;;;;;;;-0.14;77.28;100856.41;4997131;28;20093;-82
2021/12/19 07:04:06;;;;;;;20.83;14.93;;;;;;;0.03;76.88;100857.25;4997399;28;20038;-79
2021/12/19 07:06:32;;;;;;;22.33;14.15;;;;;;;-0.32;77.48;100834.03;4998021;28;20022;-80
2021/12/19 07:08:58;;;;;;;20.23;15.43;;;;;;;-0.58;78.26;100852.47;4996959;28;20052;-79
2021/12/19 07:11:24;;;;;;;18.90;14.02;;;;;;;-0.17;76.96;100831.34;4998099;28;20049;-81
2021/12/19 07:13:49;;;;;;;18.05;14.68;;;;;;;-0.28;76.65;100835.06;4997232;28;20056;-81
2021/12/19 07:16:15;;;;;;;18.02;14.27;;;;;;;-0.03;76.49;100817.44;4998001;28;20485;-85
2021/12/19 07:18:42;;;;;;;23.10;14.77;;;;;;;0.18;76.25;100835.66;4999266;28;20481;-87
2021/12/19 07:21:08;;;;;;;17.63;14.07;;;;;;;0.05;75.72;100825.56;4996324;28;20387;-85
2021/12/19 07:23:34;;;;;;;24.80;13.88;;;;;;;-0.41;76.85;100810.38;4998109;28;20045;-79
2021/12/19 07:26:00;;;;;;;21.08;14.20;;;;;;;-0.35;77.18;100802.97;4997418;28;20570;-83
2021/12/19 07:28:26;;;;;;;18.42;14.40;;;;;;;-0.02;76.83;100805.44;4994290;28;20057;-86
2021/12/19 07:30:52;;;;;;;21.05;16.13;;;;;;;0.01;76.29;100803.00;4994850;28;20032;-80
2021/12/19 07:33:18;;;;;;;23.08;15.73;;;;;;;-0.14;77.18;100822.88;4996990;28;20132;-82
2021/12/19 07:35:47;;;;;;;22.77;16.85;;;;;;;-0.16;77.49;100807.34;4997227;28;20057;-79
2021/12/19 07:38:25;;;;;;;21.38;16.85;;;;;;;-0.20;78.22;100799.38;4996757;28;20092;-80
2021/12/19 07:40:53;;;;;;;30.95;21.80;;;;;;;-0.16;78.31;100819.34;4997494;28;20038;-78
2021/12/19 07:43:18;;;;;;;21.02;15.55;;;;;;;-0.14;78.67;100810.88;4999496;28;20034;-80
2021/12/19 07:45:44;;;;;;;26.15;18.30;;;;;;;-0.20;78.73;100832.91;4997822;28;20038;-79
2021/12/19 07:48:10;;;;;;;47.00;20.88;;;;;;;0.03;78.78;100806.53;4996908;28;20545;-78
2021/12/19 07:50:36;;;;;;;30.10;19.50;;;;;;;0.38;78.48;100815.09;4998804;28;20050;-79
2021/12/19 07:53:03;;;;;;;29.17;21.05;;;;;;;0.34;78.44;100826.97;4998723;28;20076;-80
2021/12/19 07:55:30;;;;;;;25.55;21.20;;;;;;;0.22;78.66;100812.59;4997660;28;20058;-81
2021/12/19 07:57:56;;;;;;;31.35;22.15;;;;;;;0.52;77.96;100815.75;4998820;28;20476;-83
2021/12/19 08:00:22;;;;;;;29.67;21.98;;;;;;;0.37;78.36;100779.75;4998342;28;20180;-77
2021/12/19 08:02:48;;;;;;;37.42;20.73;;;;;;;0.94;77.83;100816.84;4998103;28;20134;-79
2021/12/19 08:05:16;;;;;;;50.15;20.98;;;;;;;0.70;77.75;100802.78;4998703;28;20122;-77
2021/12/19 08:07:46;;;;;;;31.08;21.75;;;;;;;0.76;77.92;100800.50;4997652;28;20046;-78
2021/12/19 08:10:15;;;;;;;41.45;25.35;;;;;;;0.87;78.00;100801.88;4997342;28;20529;-80
2021/12/19 08:12:41;;;;;;;26.05;20.90;;;;;;;0.75;77.83;100783.22;4995749;28;20033;-78
2021/12/19 08:15:08;;;;;;;30.20;20.63;;;;;;;0.98;77.55;100769.66;5028791;28;20053;-77
2021/12/19 08:17:35;;;;;;;26.65;19.40;;;;;;;1.29;76.84;100793.34;4998596;28;20054;-79
2021/12/19 08:20:03;;;;;;;24.60;19.42;;;;;;;1.18;76.69;100777.41;4998578;28;20511;-75
2021/12/19 08:22:30;;;;;;;28.02;19.02;;;;;;;1.25;76.56;100784.59;4995198;28;20038;-77
2021/12/19 08:24:57;;;;;;;28.23;17.77;;;;;;;1.55;76.36;100764.34;4996316;28;20049;-77
2021/12/19 08:27:23;;;;;;;20.60;16.55;;;;;;;1.51;74.90;100746.03;4993014;28;20825;-77
2021/12/19 08:29:49;;;;;;;22.10;17.52;;;;;;;1.81;74.09;100749.91;4994609;28;20042;-80
2021/12/19 08:32:15;;;;;;;26.67;17.35;;;;;;;1.86;73.51;100773.38;5025240;28;20057;-80
2021/12/19 08:34:40;;;;;;;23.83;17.83;;;;;;;1.84;73.70;100762.94;4997428;28;22133;-79
2021/12/19 08:37:07;;;;;;;19.60;15.93;;;;;;;1.61;72.94;100746.47;4997665;28;20636;-79
2021/12/19 08:39:33;;;;;;;20.40;17.00;;;;;;;1.63;73.50;100756.91;4998861;28;20096;-79
2021/12/19 08:42:00;;;;;;;20.98;17.00;;;;;;;1.73;72.70;100759.03;4981329;28;20048;-78
2021/12/19 08:44:26;;;;;;;24.92;16.83;;;;;;;1.85;72.10;100738.84;4996495;28;20088;-78
2021/12/19 08:46:52;;;;;;;23.45;16.52;;;;;;;1.61;71.80;100743.00;4997400;28;20192;-78
2021/12/19 08:49:17;;;;;;;19.88;17.77;;;;;;;1.85;71.44;100764.72;4998115;28;20038;-78
2021/12/19 08:51:43;;;;;;;19.13;16.00;;;;;;;2.07;71.27;100745.75;4995307;28;20433;-78
2021/12/19 08:54:08;;;;;;;22.40;14.38;;;;;;;2.19;70.57;100735.00;4997070;28;20053;-78
2021/12/19 08:56:35;;;;;;;18.55;15.23;;;;;;;2.18;70.06;100746.19;4996379;28;20057;-77
2021/12/19 08:59:01;;;;;;;23.10;15.48;;;;;;;1.75;70.85;100741.88;4995358;28;20052;-77
2021/12/19 09:01:27;;;;;;;20.15;14.68;;;;;;;1.71;70.97;100732.25;4996227;28;20049;-71
2021/12/19 09:03:53;;;;;;;25.27;17.20;;;;;;;1.99;70.63;100731.66;4996155;28;20042;-71
2021/12/19 09:06:19;;;;;;;19.65;16.67;;;;;;;1.79;70.93;100704.09;4995710;28;20058;-72
2021/12/19 09:08:44;;;;;;;19.08;15.35;;;;;;;2.02;70.20;100689.47;4996591;28;21370;-73
2021/12/19 09:11:10;;;;;;;22.25;16.13;;;;;;;2.30;70.25;100688.81;4996055;28;20192;-70
2021/12/19 09:13:36;;;;;;;22.17;15.95;;;;;;;2.26;69.63;100685.22;4994899;28;21382;-71
2021/12/19 09:18:28;;;;;;;22.50;17.02;;;;;;;2.42;69.59;100671.16;5134334;27;20624;-69
2021/12/19 09:20:54;;;;;;;22.83;15.13;;;;;;;2.72;69.05;100663.63;5100261;27;20473;-70
2021/12/19 09:23:20;;;;;;;20.92;15.35;;;;;;;2.62;68.64;100678.75;5089508;27;20062;-71
2021/12/19 09:25:46;;;;;;;26.20;15.70;;;;;;;2.44;68.45;100669.50;5092077;28;20035;-72
2021/12/19 09:28:12;;;;;;;19.63;15.60;;;;;;;2.42;69.10;100665.97;5095521;27;20572;-71
2021/12/19 09:30:37;;;;;;;21.17;15.68;;;;;;;2.88;67.93;100653.78;5118528;27;20059;-71
2021/12/19 09:33:04;;;;;;;20.20;15.30;;;;;;;2.78;67.72;100673.31;5095447;27;20498;-70
2021/12/19 09:35:30;;;;;;;22.70;14.48;;;;;;;2.85;67.86;100666.63;5091136;28;20068;-71
2021/12/19 09:37:56;;;;;;;23.00;15.90;;;;;;;3.15;67.42;100652.13;5091458;27;20055;-69
2021/12/19 09:40:31;;;;;;;25.67;16.35;;;;;;;2.89;67.35;100640.88;5091209;27;20186;-69
2021/12/19 09:43:01;;;;;;;20.90;15.93;;;;;;;2.94;66.83;100628.06;5091442;28;20028;-68
2021/12/19 09:45:27;;;;;;;18.52;14.18;;;;;;;3.22;67.14;100637.66;5093904;28;20264;-71
2021/12/19 09:47:53;;;;;;;21.42;16.08;;;;;;;3.15;67.04;100615.84;5111717;27;20050;-68
2021/12/19 09:50:19;;;;;;;20.13;14.52;;;;;;;3.34;66.25;100612.13;5103805;27;20407;-70
2021/12/19 09:52:45;;;;;;;21.63;15.60;;;;;;;3.46;65.89;100597.78;5093473;28;20036;-70
2021/12/19 09:55:16;;;;;;;25.73;16.52;;;;;;;3.65;65.62;100622.59;5092813;27;20034;-68
2021/12/19 09:57:41;;;;;;;20.80;15.85;;;;;;;3.86;65.83;100623.25;5091546;28;20032;-68
2021/12/19 10:00:07;;;;;;;34.75;15.95;;;;;;;3.87;65.52;100603.41;5091830;27;20068;-69
2021/12/19 10:02:33;;;;;;;25.30;15.48;;;;;;;3.58;65.32;100595.56;5091253;28;20044;-70
2021/12/19 10:05:14;;;;;;;27.20;16.10;;;;;;;3.96;65.06;100607.16;5091516;28;20441;-68
2021/12/19 10:07:56;;;;;;;25.63;15.30;;;;;;;4.25;64.83;100580.25;5089075;27;20044;-68
2021/12/19 10:10:53;;;;;;;27.83;17.95;;;;;;;4.04;64.45;100585.72;5091637;27;20048;-70
2021/12/19 10:13:31;;;;;;;22.05;15.48;;;;;;;3.92;64.20;100573.25;5090871;27;20127;-72
2021/12/19 10:18:28;;;;;;;18.17;14.38;;;;;;;3.99;64.66;100581.25;5115306;27;21155;-71
2021/12/19 10:21:00;;;;;;;21.20;16.23;;;;;;;4.16;65.31;100557.50;5103196;27;20046;-69
2021/12/19 10:23:31;;;;;;;20.67;14.13;;;;;;;4.18;64.39;100546.31;5088466;28;20585;-68
2021/12/19 10:25:58;;;;;;;24.05;16.00;;;;;;;4.38;65.39;100566.78;5107158;27;20129;-69
2021/12/19 10:28:24;;;;;;;21.05;14.52;;;;;;;4.53;64.24;100533.41;5093651;27;20056;-70
2021/12/19 10:30:50;;;;;;;19.98;15.25;;;;;;;4.25;64.39;100515.34;5100550;27;20076;-69
2021/12/19 10:33:25;;;;;;;20.88;14.50;;;;;;;4.79;64.27;100531.47;5099189;27;20039;-69
2021/12/19 10:35:54;;;;;;;20.67;14.23;;;;;;;4.98;62.82;100500.72;5106612;27;20039;-69
2021/12/19 10:38:24;;;;;;;22.70;14.32;;;;;;;5.14;61.82;100505.44;5126250;27;20058;-68
2021/12/19 10:40:54;;;;;;;26.02;14.88;;;;;;;5.09;62.12;100491.47;5116779;27;20044;-69
2021/12/19 10:43:21;;;;;;;32.25;15.00;;;;;;;5.40;61.47;100482.63;5119498;27;20148;-69
2021/12/19 10:45:48;;;;;;;16.42;14.07;;;;;;;5.46;60.07;100498.38;5126244;27;20031;-69
2021/12/19 10:48:16;;;;;;;20.77;13.35;;;;;;;5.62;60.20;100496.09;5098553;27;20047;-69
2021/12/19 10:51:06;;;;;;;20.02;13.68;;;;;;;5.32;60.66;100463.38;5093055;28;20079;-69
2021/12/19 10:53:41;;;;;;;16.27;13.48;;;;;;;6.23;58.16;100473.94;5092099;28;20054;-69
2021/12/19 10:56:22;;;;;;;22.55;13.52;;;;;;;6.49;57.44;100448.34;5092352;28;20105;-70
2021/12/19 10:58:56;;;;;;;20.00;12.02;;;;;;;6.63;57.05;100461.63;5093041;28;20093;-68
2021/12/19 11:02:39;;;;;;;21.55;13.85;;;;;;;6.17;59.13;100459.91;5084524;27;20122;-74
2021/12/19 11:05:25;;;;;;;15.48;11.75;;;;;;;6.53;58.48;100431.00;5056782;28;20110;-73
2021/12/19 11:08:07;;;;;;;19.92;11.48;;;;;;;6.34;58.47;100428.13;5041144;28;20149;-68
2021/12/19 11:10:42;;;;;;;15.60;10.88;;;;;;;6.52;57.75;100439.69;5040124;28;20075;-68
2021/12/19 11:13:08;;;;;;;18.60;12.77;;;;;;;6.87;56.01;100429.81;5042034;28;20037;-68
2021/12/19 11:15:34;;;;;;;14.27;10.93;;;;;;;6.58;55.82;100407.63;5036663;28;20098;-68
2021/12/19 11:18:00;;;;;;;14.80;11.13;;;;;;;6.59;55.99;100393.75;5038249;28;20887;-68
2021/12/19 11:20:25;;;;;;;19.05;10.35;;;;;;;6.31;56.36;100377.66;5044963;28;20052;-67
2021/12/19 11:22:51;;;;;;;16.25;11.48;;;;;;;6.82;55.82;100401.94;5039979;28;20681;-68
2021/12/19 11:25:16;;;;;;;17.20;10.57;;;;;;;6.47;56.29;100410.94;5038602;28;20046;-70
2021/12/19 11:27:43;;;;;;;14.10;9.52;;;;;;;6.33;56.19;100397.69;5040790;28;20475;-71
2021/12/19 11:30:11;;;;;;;16.25;8.85;;;;;;;5.92;57.12;100382.19;5044797;28;20140;-73
2021/12/19 11:33:02;;;;;;;13.95;8.02;;;;;;;5.65;57.57;100364.31;5038161;28;20167;-73
2021/12/19 11:35:32;;;;;;;13.25;8.93;;;;;;;6.28;57.32;100369.81;5039267;28;20088;-70
2021/12/19 11:38:06;;;;;;;19.50;8.38;;;;;;;6.29;56.28;100379.34;5039545;28;20049;-70
2021/12/19 11:40:35;;;;;;;11.05;8.57;;;;;;;5.87;57.66;100365.56;5040117;28;20041;-71
2021/12/19 11:43:08;;;;;;;16.42;9.05;;;;;;;5.87;58.41;100333.44;5038399;28;20033;-70
2021/12/19 11:45:46;;;;;;;10.50;6.22;;;;;;;5.96;57.51;100359.69;5038323;28;20040;-70
2021/12/19 11:48:28;;;;;;;9.60;6.70;;;;;;;5.71;57.69;100337.50;5041925;28;20098;-69
2021/12/19 11:50:56;;;;;;;11.82;7.93;;;;;;;5.83;58.78;100349.84;5037857;28;20049;-70
2021/12/19 11:53:23;;;;;;;19.67;8.63;;;;;;;5.65;58.62;100332.19;5038631;28;20045;-68
2021/12/19 11:55:51;;;;;;;11.95;7.32;;;;;;;6.23;57.98;100358.44;5041779;28;20068;-70
2021/12/19 11:58:19;;;;;;;10.70;6.72;;;;;;;5.45;59.71;100350.03;5040532;28;20037;-70
2021/12/19 12:00:54;;;;;;;13.80;8.40;;;;;;;5.42;60.01;100339.56;5040458;28;20051;-70
2021/12/19 12:03:23;;;;;;;13.43;8.13;;;;;;;5.29;60.41;100333.22;5037998;28;20051;-68
2021/12/19 12:06:10;;;;;;;10.40;6.65;;;;;;;5.05;60.79;100337.06;5041406;28;20041;-69
2021/12/19 12:08:35;;;;;;;8.98;7.15;;;;;;;5.24;61.21;100330.56;5048425;28;20132;-68
2021/12/19 12:11:04;;;;;;;11.43;7.90;;;;;;;5.28;61.54;100340.16;5044786;28;20045;-69
2021/12/19 12:13:42;;;;;;;10.52;8.38;;;;;;;5.00;61.57;100312.69;5032285;28;20061;-69
2021/12/19 12:16:42;;;;;;;14.35;9.18;;;;;;;5.19;60.96;100315.69;5110074;27;20131;-69
2021/12/19 12:19:08;;;;;;;13.48;8.18;;;;;;;5.48;60.59;100331.88;5062731;28;20110;-73
2021/12/19 12:24:07;;;;;;;11.95;7.78;;;;;;;5.68;60.28;100312.28;5064059;28;20052;-72
2021/12/19 12:27:00;;;;;;;9.85;7.53;;;;;;;5.26;62.47;100313.22;5060434;28;20557;-73
2021/12/19 12:29:31;;;;;;;12.10;9.90;;;;;;;5.35;63.05;100301.25;5058218;28;20051;-70
2021/12/19 12:31:57;;;;;;;12.73;9.38;;;;;;;5.43;62.90;100304.88;5060460;28;20056;-71
2021/12/19 12:34:23;;;;;;;13.10;10.40;;;;;;;4.99;63.67;100265.88;5059251;28;20033;-70
2021/12/19 12:36:49;;;;;;;16.90;9.38;;;;;;;5.16;63.79;100272.28;5063606;28;20040;-73
2021/12/19 12:39:21;;;;;;;13.30;9.07;;;;;;;5.24;64.62;100273.34;5061571;28;20060;-70
2021/12/19 12:44:18;;;;;;;15.43;9.38;;;;;;;5.10;65.38;100238.34;5061300;28;20044;-69
2021/12/19 12:46:45;;;;;;;12.80;10.07;;;;;;;5.21;64.55;100241.16;5060683;28;20056;-69
2021/12/19 12:49:25;;;;;;;19.25;8.50;;;;;;;5.53;63.92;100228.75;5059220;28;20032;-69